Time;durP1;ratioP1;P1;durP2;ratioP2;P2;SDS_P1;SDS_P2;PMS_P1;PMS_P2;Temp;Humidity;BMP_temperature;BMP_pressure;BME280_temperature;BME280_humidity;BME280_pressure;Samples;Min_cycle;Max_cycle;Signal;HPM_P1;HPM_P2
2021/04/30 00:01:15;;;;;;;34.43;27.50;;;8.70;92.30;;;;;;5112729;28;20367;-73
2021/04/30 00:03:41;;;;;;;37.67;28.40;;;8.70;92.20;;;;;;5112790;28;20048;-73
2021/04/30 00:06:06;;;;;;;32.10;27.03;;;8.70;92.20;;;;;;5112176;28;20350;-73
2021/04/30 00:08:32;;;;;;;30.30;26.17;;;8.60;92.20;;;;;;5112930;28;20044;-73
2021/04/30 00:10:58;;;;;;;36.17;28.53;;;8.60;92.20;;;;;;5111688;28;20079;-74
2021/04/30 00:13:24;;;;;;;38.13;29.60;;;8.60;92.20;;;;;;5112492;28;20387;-73
2021/04/30 00:15:50;;;;;;;34.43;29.87;;;8.60;92.30;;;;;;5112683;28;20052;-73
2021/04/30 00:18:15;;;;;;;32.00;28.50;;;8.50;92.20;;;;;;5112685;28;20401;-73
2021/04/30 00:20:51;;;;;;;35.23;29.83;;;8.60;92.30;;;;;;5111652;28;20044;-73
2021/04/30 00:23:16;;;;;;;37.87;29.60;;;8.50;92.30;;;;;;5112768;28;20044;-73
2021/04/30 00:25:42;;;;;;;31.73;25.87;;;8.40;92.30;;;;;;5112685;28;20315;-74
2021/04/30 00:28:08;;;;;;;35.77;29.07;;;8.40;92.30;;;;;;5111886;28;20130;-73
2021/04/30 00:30:38;;;;;;;36.03;28.57;;;8.30;92.30;;;;;;5112734;28;20782;-73
2021/04/30 00:33:04;;;;;;;31.60;27.57;;;8.30;92.30;;;;;;5112027;28;20047;-73
2021/04/30 00:35:29;;;;;;;28.93;25.63;;;8.30;92.40;;;;;;5111592;28;20827;-73
2021/04/30 00:37:55;;;;;;;30.20;26.90;;;8.30;92.40;;;;;;5111944;28;20548;-73
2021/04/30 00:40:21;;;;;;;34.87;28.40;;;8.30;92.40;;;;;;5111499;28;20108;-73
2021/04/30 00:42:53;;;;;;;32.03;27.10;;;8.40;92.40;;;;;;5112135;28;20039;-73
2021/04/30 00:45:22;;;;;;;30.30;25.60;;;8.40;92.40;;;;;;5112214;28;20324;-73
2021/04/30 00:47:48;;;;;;;28.50;25.60;;;8.40;92.30;;;;;;5111197;28;20839;-73
2021/04/30 00:50:16;;;;;;;28.10;24.33;;;8.40;92.70;;;;;;5111991;28;20336;-73
2021/04/30 00:52:42;;;;;;;30.27;26.77;;;8.40;92.30;;;;;;5112143;28;20289;-74
2021/04/30 00:55:13;;;;;;;31.80;25.37;;;8.40;92.30;;;;;;5111271;28;20302;-74
2021/04/30 00:57:41;;;;;;;29.30;25.85;;;8.40;92.20;;;;;;5112542;28;20138;-74
2021/04/30 01:00:09;;;;;;;30.13;26.90;;;8.40;92.20;;;;;;5111836;28;20079;-74
2021/04/30 01:02:35;;;;;;;31.07;25.80;;;8.40;92.10;;;;;;5111232;28;20627;-74
2021/04/30 01:05:02;;;;;;;32.17;25.83;;;8.30;92.10;;;;;;5111685;28;20305;-74
2021/04/30 01:07:28;;;;;;;30.73;24.93;;;8.40;92.20;;;;;;5112271;28;20293;-74
2021/04/30 01:09:55;;;;;;;33.53;26.43;;;8.30;92.20;;;;;;5111065;28;20298;-74
2021/04/30 01:12:21;;;;;;;31.10;24.00;;;8.20;92.20;;;;;;5112065;28;20650;-74
2021/04/30 01:14:48;;;;;;;30.30;27.00;;;8.20;92.20;;;;;;5111555;28;20314;-74
2021/04/30 01:17:13;;;;;;;27.10;23.90;;;8.20;92.20;;;;;;5110774;28;20305;-74
2021/04/30 01:19:39;;;;;;;29.90;26.33;;;8.10;92.20;;;;;;5111731;28;20309;-74
2021/04/30 01:22:04;;;;;;;26.47;23.73;;;8.10;92.30;;;;;;5111794;28;20264;-74
2021/04/30 01:24:30;;;;;;;24.53;22.00;;;8.10;92.30;;;;;;5115648;28;20054;-74
2021/04/30 01:26:56;;;;;;;29.77;23.67;;;8.10;92.30;;;;;;5115691;28;20046;-73
2021/04/30 01:29:22;;;;;;;28.30;24.23;;;8.10;92.30;;;;;;5116108;28;20460;-73
2021/04/30 01:31:51;;;;;;;30.67;26.50;;;8.10;92.30;;;;;;5115058;28;20318;-73
2021/04/30 01:34:17;;;;;;;28.47;25.37;;;8.10;92.30;;;;;;5115529;28;20146;-73
2021/04/30 01:36:43;;;;;;;29.73;24.93;;;8.00;92.30;;;;;;5115058;28;20309;-74
2021/04/30 01:39:12;;;;;;;29.63;25.07;;;8.00;92.30;;;;;;5115716;28;20040;-74
2021/04/30 01:41:40;;;;;;;30.27;23.63;;;8.00;92.40;;;;;;5116091;28;20321;-74
2021/04/30 01:44:11;;;;;;;29.57;24.57;;;7.90;92.40;;;;;;5114705;28;20308;-73
2021/04/30 01:46:37;;;;;;;29.20;25.63;;;7.90;92.50;;;;;;5116070;28;20354;-73
2021/04/30 01:49:04;;;;;;;32.10;27.43;;;7.90;92.50;;;;;;5115502;28;20301;-74
2021/04/30 01:51:29;;;;;;;29.50;25.40;;;7.90;92.50;;;;;;5114966;28;20297;-74
2021/04/30 01:53:55;;;;;;;29.67;26.03;;;7.90;92.50;;;;;;5115172;28;20726;-73
2021/04/30 01:56:21;;;;;;;33.37;27.57;;;7.80;92.50;;;;;;5115519;28;20096;-73
2021/04/30 01:58:47;;;;;;;33.27;27.47;;;7.90;92.50;;;;;;5114301;28;20502;-73
2021/04/30 02:01:13;;;;;;;35.87;27.53;;;7.80;92.50;;;;;;5115336;28;20055;-73
2021/04/30 02:03:39;;;;;;;32.37;26.10;;;7.80;92.50;;;;;;5115575;28;20139;-73
2021/04/30 02:06:05;;;;;;;29.87;26.13;;;7.80;92.50;;;;;;5114122;28;20073;-73
2021/04/30 02:08:34;;;;;;;28.93;25.43;;;7.80;92.50;;;;;;5115383;28;20325;-73
2021/04/30 02:11:00;;;;;;;28.43;25.50;;;7.80;92.60;;;;;;5114908;28;20843;-73
2021/04/30 02:13:25;;;;;;;27.23;23.87;;;7.70;92.60;;;;;;5114319;28;20475;-73
2021/04/30 02:15:54;;;;;;;30.37;26.50;;;7.70;92.70;;;;;;5115057;28;20171;-73
2021/04/30 02:18:20;;;;;;;27.57;24.63;;;7.80;92.70;;;;;;5115319;28;20047;-74
2021/04/30 02:20:46;;;;;;;31.10;25.37;;;7.70;92.70;;;;;;5114247;28;20309;-73
2021/04/30 02:23:13;;;;;;;29.00;25.63;;;7.70;92.70;;;;;;5114939;28;20292;-74
2021/04/30 02:25:39;;;;;;;29.27;25.47;;;7.70;92.80;;;;;;5115037;28;20840;-73
2021/04/30 02:28:06;;;;;;;29.27;26.30;;;7.70;92.90;;;;;;5113737;28;20532;-73
2021/04/30 02:30:34;;;;;;;29.80;25.93;;;7.70;92.90;;;;;;5115066;28;20293;-73
2021/04/30 02:33:00;;;;;;;34.07;26.57;;;7.70;92.90;;;;;;5113692;28;20309;-72
2021/04/30 02:35:52;;;;;;;30.43;25.73;;;7.70;92.90;;;;;;5113664;28;20331;-73
2021/04/30 02:38:19;;;;;;;30.05;23.42;;;7.80;92.90;;;;;;5111055;28;20361;-72
2021/04/30 02:40:47;;;;;;;30.07;26.83;;;7.80;92.90;;;;;;5113511;28;20043;-72
2021/04/30 02:43:16;;;;;;;29.77;26.57;;;7.80;92.90;;;;;;5114433;28;20296;-73
2021/04/30 02:45:43;;;;;;;29.07;25.63;;;7.80;92.90;;;;;;5114443;28;20380;-73
2021/04/30 02:48:13;;;;;;;30.97;27.70;;;7.80;92.90;;;;;;5113566;28;20293;-73
2021/04/30 02:50:40;;;;;;;32.40;28.50;;;7.80;92.90;;;;;;5114574;28;20688;-74
2021/04/30 02:53:06;;;;;;;29.63;26.20;;;7.80;92.90;;;;;;5114045;28;20649;-74
2021/04/30 02:55:32;;;;;;;27.60;24.07;;;7.90;92.90;;;;;;5113872;28;20290;-74
2021/04/30 02:58:00;;;;;;;29.47;24.00;;;7.90;92.90;;;;;;5113874;28;20384;-74
2021/04/30 03:00:27;;;;;;;29.53;26.50;;;7.90;92.90;;;;;;5114447;28;20054;-74
2021/04/30 03:02:53;;;;;;;28.00;24.90;;;7.90;92.90;;;;;;5113463;28;20324;-74
2021/04/30 03:05:20;;;;;;;28.03;24.97;;;7.90;92.90;;;;;;5113806;28;20796;-74
2021/04/30 03:07:47;;;;;;;29.40;25.43;;;7.90;92.90;;;;;;5113822;28;20301;-74
2021/04/30 03:10:14;;;;;;;29.87;26.60;;;8.00;92.90;;;;;;5113378;28;20708;-74
2021/04/30 03:12:40;;;;;;;30.83;25.00;;;7.90;92.90;;;;;;5114178;28;20346;-74
2021/04/30 03:15:07;;;;;;;29.80;24.60;;;7.90;92.90;;;;;;5113279;28;20298;-74
2021/04/30 03:17:33;;;;;;;29.70;26.50;;;8.00;92.90;;;;;;5114049;28;20043;-74
2021/04/30 03:19:59;;;;;;;28.43;24.70;;;7.90;92.90;;;;;;5113260;28;20362;-74
2021/04/30 03:22:25;;;;;;;29.17;25.63;;;8.00;92.90;;;;;;5113096;28;20411;-74
2021/04/30 03:24:50;;;;;;;31.77;26.83;;;8.00;92.90;;;;;;5113977;28;20156;-74
2021/04/30 03:27:16;;;;;;;27.23;24.23;;;7.90;92.90;;;;;;5113931;28;20077;-74
2021/04/30 03:29:41;;;;;;;35.20;27.23;;;7.90;92.90;;;;;;5113025;28;20442;-74
2021/04/30 03:32:08;;;;;;;32.37;27.10;;;7.90;93.00;;;;;;5113363;28;20555;-74
2021/04/30 03:34:36;;;;;;;29.43;25.30;;;7.90;93.00;;;;;;5113298;28;20047;-74
2021/04/30 03:37:04;;;;;;;30.23;27.13;;;7.90;93.00;;;;;;5112207;28;20313;-74
2021/04/30 03:39:29;;;;;;;28.17;25.10;;;7.90;93.00;;;;;;5113565;28;20302;-74
2021/04/30 03:41:55;;;;;;;28.83;25.73;;;8.00;93.30;;;;;;5112994;28;20845;-74
2021/04/30 03:44:21;;;;;;;33.80;26.03;;;8.00;92.90;;;;;;5112838;28;20071;-74
2021/04/30 03:46:46;;;;;;;30.30;24.27;;;8.00;92.90;;;;;;5112977;28;20515;-73
2021/04/30 03:49:12;;;;;;;30.73;25.33;;;7.90;92.80;;;;;;5113028;28;20048;-73
2021/04/30 03:51:39;;;;;;;30.83;26.90;;;7.90;92.90;;;;;;5112433;28;20055;-73
2021/04/30 03:54:05;;;;;;;32.23;26.30;;;7.90;92.90;;;;;;5113260;28;20293;-73
2021/04/30 03:56:31;;;;;;;34.20;25.87;;;7.80;92.80;;;;;;5113422;28;20108;-74
2021/04/30 03:58:57;;;;;;;31.60;27.03;;;7.80;92.90;;;;;;5111854;28;20056;-74
2021/04/30 04:01:23;;;;;;;33.10;27.00;;;7.80;92.90;;;;;;5113426;28;20043;-73
2021/04/30 04:03:49;;;;;;;28.97;22.17;;;7.80;93.00;;;;;;5112622;28;20050;-73
2021/04/30 04:06:15;;;;;;;29.50;22.63;;;7.70;93.00;;;;;;5112118;28;20312;-73
2021/04/30 04:08:41;;;;;;;32.67;25.67;;;7.70;93.00;;;;;;5112589;28;20387;-73
2021/04/30 04:11:07;;;;;;;32.60;25.90;;;7.70;93.00;;;;;;5112478;28;20790;-74
2021/04/30 04:13:32;;;;;;;33.97;27.43;;;7.80;93.10;;;;;;5112227;28;20093;-73
2021/04/30 04:16:02;;;;;;;36.47;28.27;;;7.80;93.10;;;;;;5112352;28;20117;-74
2021/04/30 04:18:28;;;;;;;35.07;26.47;;;7.80;93.10;;;;;;5111985;28;20043;-73
2021/04/30 04:20:54;;;;;;;40.53;27.73;;;7.80;93.10;;;;;;5112630;28;20639;-73
2021/04/30 04:23:20;;;;;;;30.83;25.03;;;7.80;93.10;;;;;;5112752;28;20301;-73
2021/04/30 04:25:45;;;;;;;29.60;25.57;;;7.80;93.20;;;;;;5111632;28;20178;-73
2021/04/30 04:28:11;;;;;;;32.57;27.47;;;7.80;93.20;;;;;;5112237;28;20496;-73
2021/04/30 04:30:37;;;;;;;34.33;25.43;;;7.80;93.20;;;;;;5112511;28;20055;-73
2021/04/30 04:33:03;;;;;;;34.70;27.67;;;7.80;93.20;;;;;;5111091;28;20062;-73
2021/04/30 04:35:29;;;;;;;31.83;24.80;;;7.90;93.30;;;;;;5112627;28;20044;-73
2021/04/30 04:37:55;;;;;;;38.43;26.37;;;7.90;93.30;;;;;;5111938;28;20707;-73
2021/04/30 04:40:22;;;;;;;30.77;24.07;;;7.90;93.30;;;;;;5111840;28;20054;-73
2021/04/30 04:42:47;;;;;;;29.97;21.53;;;7.90;93.30;;;;;;5112014;28;20050;-74
2021/04/30 04:45:15;;;;;;;30.77;24.50;;;8.00;93.30;;;;;;5111949;28;20313;-73
2021/04/30 04:47:41;;;;;;;31.33;22.80;;;8.00;93.20;;;;;;5110136;28;20048;-73
2021/04/30 04:50:09;;;;;;;33.97;24.70;;;8.10;93.30;;;;;;5110942;28;20302;-73
2021/04/30 04:52:35;;;;;;;32.43;24.93;;;8.10;93.30;;;;;;5111988;28;20766;-73
2021/04/30 04:55:01;;;;;;;32.80;25.47;;;8.10;93.20;;;;;;5110654;28;20305;-73
2021/04/30 04:57:27;;;;;;;37.60;25.77;;;8.10;93.20;;;;;;5111536;28;20048;-73
2021/04/30 04:59:52;;;;;;;31.80;24.87;;;8.10;93.20;;;;;;5111694;28;20047;-73
2021/04/30 05:02:18;;;;;;;34.40;24.53;;;8.20;93.30;;;;;;5110697;28;20293;-73
2021/04/30 05:04:45;;;;;;;35.90;24.17;;;8.20;93.30;;;;;;5111645;28;20066;-73
2021/04/30 05:07:11;;;;;;;34.37;25.30;;;8.10;93.30;;;;;;5111313;28;20073;-72
2021/04/30 05:09:37;;;;;;;31.60;25.30;;;8.20;93.30;;;;;;5109633;28;20355;-72
2021/04/30 05:12:03;;;;;;;30.63;23.83;;;8.30;93.30;;;;;;5111568;28;20297;-73
2021/04/30 05:14:28;;;;;;;28.20;22.57;;;8.20;93.30;;;;;;5111626;28;20557;-73
2021/04/30 05:16:54;;;;;;;40.17;25.63;;;8.30;93.30;;;;;;5110840;28;20066;-73
2021/04/30 05:19:20;;;;;;;28.57;23.57;;;8.30;93.30;;;;;;5111913;28;20441;-73
2021/04/30 05:21:47;;;;;;;33.87;24.40;;;8.30;93.30;;;;;;5110536;28;20085;-73
2021/04/30 05:24:14;;;;;;;34.37;23.60;;;8.40;93.80;;;;;;5110329;28;20290;-73
2021/04/30 05:26:41;;;;;;;31.70;23.73;;;8.40;93.40;;;;;;5110072;28;20293;-73
2021/04/30 05:29:07;;;;;;;36.43;23.43;;;8.50;93.40;;;;;;5110520;28;20278;-73
2021/04/30 05:31:37;;;;;;;36.23;24.43;;;8.60;93.40;;;;;;5111677;28;20388;-74
2021/04/30 05:34:04;;;;;;;32.97;23.43;;;8.60;93.30;;;;;;5111005;28;20297;-73
2021/04/30 05:36:30;;;;;;;27.67;18.60;;;8.70;93.30;;;;;;5110247;28;20297;-73
2021/04/30 05:38:56;;;;;;;29.43;18.93;;;8.70;93.30;;;;;;5110452;28;20297;-73
2021/04/30 05:41:22;;;;;;;32.20;22.23;;;8.80;93.30;;;;;;5111363;28;20720;-73
2021/04/30 05:43:47;;;;;;;29.20;20.17;;;8.80;93.30;;;;;;5110435;28;20040;-73
2021/04/30 05:46:13;;;;;;;30.67;20.40;;;8.80;93.30;;;;;;5111442;28;20047;-73
2021/04/30 05:48:39;;;;;;;35.23;22.00;;;8.80;93.20;;;;;;5111422;28;20408;-73
2021/04/30 05:51:05;;;;;;;29.73;20.63;;;8.90;93.20;;;;;;5110284;28;20115;-73
2021/04/30 05:53:31;;;;;;;30.17;20.63;;;8.90;93.60;;;;;;5111440;28;20474;-73
2021/04/30 05:55:57;;;;;;;28.63;21.07;;;8.90;93.20;;;;;;5110868;28;20392;-73
2021/04/30 05:58:22;;;;;;;27.87;20.33;;;8.90;93.20;;;;;;5110561;28;20075;-73
2021/04/30 06:00:48;;;;;;;28.27;20.33;;;8.90;93.10;;;;;;5110824;28;20051;-73
2021/04/30 06:03:14;;;;;;;35.87;19.47;;;9.00;93.20;;;;;;5111209;28;20412;-72
2021/04/30 06:05:39;;;;;;;31.20;18.27;;;9.00;93.20;;;;;;5110740;28;20050;-73
2021/04/30 06:08:05;;;;;;;35.20;20.20;;;9.00;93.20;;;;;;5111304;28;20071;-73
2021/04/30 06:10:33;;;;;;;31.97;18.90;;;9.00;93.10;;;;;;5115029;28;20048;-73
2021/04/30 06:13:06;;;;;;;35.07;20.37;;;9.00;93.10;;;;;;5113636;28;20661;-73
2021/04/30 06:15:32;;;;;;;28.90;18.67;;;9.00;93.10;;;;;;5115100;28;20051;-73
2021/04/30 06:17:58;;;;;;;30.93;20.10;;;9.00;93.10;;;;;;5113044;28;20381;-72
2021/04/30 06:20:24;;;;;;;34.17;21.10;;;9.00;93.10;;;;;;5114314;28;20402;-72
2021/04/30 06:22:50;;;;;;;31.57;19.70;;;9.00;93.20;;;;;;5114033;27;20052;-72
2021/04/30 06:25:17;;;;;;;28.40;18.10;;;9.10;93.20;;;;;;5113736;27;20052;-71
2021/04/30 06:27:44;;;;;;;31.77;20.47;;;9.10;93.10;;;;;;5114586;27;20704;-72
2021/04/30 06:30:10;;;;;;;30.97;19.27;;;9.10;93.10;;;;;;5114142;28;20479;-72
2021/04/30 06:32:38;;;;;;;29.33;20.83;;;9.00;93.10;;;;;;5113788;28;20066;-72
2021/04/30 06:35:08;;;;;;;29.67;19.77;;;9.00;93.10;;;;;;5113710;28;20299;-72
2021/04/30 06:37:38;;;;;;;33.97;19.70;;;9.00;93.20;;;;;;5114381;28;20665;-72
2021/04/30 06:40:05;;;;;;;30.50;18.63;;;9.00;93.10;;;;;;5113270;28;20313;-72
2021/04/30 06:42:31;;;;;;;30.77;20.40;;;9.00;93.10;;;;;;5114651;28;20073;-72
2021/04/30 06:44:56;;;;;;;34.00;20.80;;;9.00;93.10;;;;;;5113701;28;20305;-72
2021/04/30 06:47:22;;;;;;;35.93;21.10;;;9.00;93.20;;;;;;5113693;28;20040;-73
2021/04/30 06:49:48;;;;;;;35.77;21.20;;;9.00;93.20;;;;;;5114143;28;20078;-72
2021/04/30 06:52:14;;;;;;;38.97;22.10;;;9.00;93.20;;;;;;5114015;28;20088;-72
2021/04/30 06:54:40;;;;;;;37.40;21.53;;;9.00;93.20;;;;;;5113570;28;20093;-72
2021/04/30 06:57:06;;;;;;;38.00;22.23;;;9.10;93.30;;;;;;5114034;28;20134;-72
2021/04/30 06:59:31;;;;;;;27.33;20.60;;;9.10;93.30;;;;;;5114356;28;20477;-71
2021/04/30 07:01:57;;;;;;;32.17;20.30;;;9.10;93.30;;;;;;5112265;28;20130;-71
2021/04/30 07:04:23;;;;;;;35.03;21.27;;;9.10;93.30;;;;;;5113673;28;20039;-71
2021/04/30 07:06:49;;;;;;;33.20;20.50;;;9.10;93.30;;;;;;5113649;28;20051;-71
2021/04/30 07:09:14;;;;;;;34.77;21.37;;;9.20;93.30;;;;;;5113069;28;20097;-71
2021/04/30 07:11:41;;;;;;;32.50;20.30;;;9.20;93.30;;;;;;5113755;27;20047;-71
2021/04/30 07:14:07;;;;;;;31.37;20.23;;;9.20;93.30;;;;;;5112976;28;20666;-71
2021/04/30 07:16:32;;;;;;;36.40;20.87;;;9.30;93.40;;;;;;5113766;28;20051;-71
2021/04/30 07:18:58;;;;;;;38.27;20.50;;;9.30;93.40;;;;;;5112970;28;20135;-72
2021/04/30 07:21:24;;;;;;;32.00;18.80;;;9.40;93.40;;;;;;5112298;28;20100;-71
2021/04/30 07:23:53;;;;;;;29.27;20.87;;;9.50;93.40;;;;;;5113271;28;20096;-72
2021/04/30 07:26:19;;;;;;;32.13;20.37;;;9.60;93.30;;;;;;5113237;28;20051;-71
2021/04/30 07:28:44;;;;;;;28.73;18.60;;;9.70;93.30;;;;;;5112470;28;20334;-72
2021/04/30 07:31:13;;;;;;;29.67;18.50;;;9.70;93.30;;;;;;5113455;28;20075;-72
2021/04/30 07:33:46;;;;;;;31.63;18.53;;;9.80;93.30;;;;;;5113372;28;20051;-72
2021/04/30 07:36:12;;;;;;;31.37;17.40;;;9.90;93.10;;;;;;5112527;28;20052;-72
2021/04/30 07:38:38;;;;;;;25.77;16.77;;;9.90;92.90;;;;;;5113110;28;20063;-72
2021/04/30 07:41:03;;;;;;;28.03;17.33;;;9.90;92.90;;;;;;5112686;28;20142;-72
2021/04/30 07:43:29;;;;;;;28.43;19.13;;;9.90;92.80;;;;;;5112654;28;20054;-72
2021/04/30 07:45:54;;;;;;;23.00;16.57;;;9.90;92.70;;;;;;5112668;28;20043;-72
2021/04/30 07:48:20;;;;;;;27.43;18.43;;;9.90;92.70;;;;;;5113232;28;20055;-72
2021/04/30 07:50:46;;;;;;;24.57;17.80;;;9.80;92.50;;;;;;5112206;28;20376;-72
2021/04/30 07:53:11;;;;;;;27.97;17.00;;;9.80;92.50;;;;;;5112714;28;20138;-72
2021/04/30 07:55:37;;;;;;;30.30;17.33;;;9.80;92.40;;;;;;5113359;28;20419;-72
2021/04/30 07:58:03;;;;;;;27.80;17.83;;;9.80;92.40;;;;;;5111942;28;20492;-72
2021/04/30 08:00:30;;;;;;;25.73;17.43;;;9.80;92.40;;;;;;5112886;28;20070;-72
2021/04/30 08:02:55;;;;;;;30.47;17.70;;;9.80;92.40;;;;;;5112308;28;20093;-72
2021/04/30 08:05:21;;;;;;;30.33;18.17;;;9.80;92.30;;;;;;5112071;28;20043;-72
2021/04/30 08:07:47;;;;;;;26.67;17.60;;;9.80;92.30;;;;;;5112422;28;20467;-72
2021/04/30 08:10:13;;;;;;;34.20;18.13;;;9.80;92.30;;;;;;5112454;28;20047;-72
2021/04/30 08:12:40;;;;;;;24.37;17.23;;;9.70;92.30;;;;;;5112064;28;20051;-72
2021/04/30 08:15:06;;;;;;;32.17;18.37;;;9.70;92.30;;;;;;5112272;28;20047;-72
2021/04/30 08:17:32;;;;;;;27.23;17.00;;;9.70;92.30;;;;;;5112091;28;20051;-72
2021/04/30 08:19:59;;;;;;;24.77;16.50;;;9.60;92.20;;;;;;5111440;28;20408;-71
2021/04/30 08:22:26;;;;;;;25.40;18.40;;;9.60;92.30;;;;;;5109828;28;20054;-73
2021/04/30 08:24:52;;;;;;;27.00;16.63;;;9.60;92.40;;;;;;5111249;28;20463;-73
2021/04/30 08:27:20;;;;;;;32.53;18.90;;;9.60;92.40;;;;;;5112271;28;20067;-73
2021/04/30 08:29:49;;;;;;;26.20;16.43;;;9.60;92.50;;;;;;5111946;28;20219;-72
2021/04/30 08:32:15;;;;;;;29.33;19.27;;;9.60;92.50;;;;;;5110639;28;20389;-73
2021/04/30 08:34:41;;;;;;;30.37;19.27;;;9.70;92.60;;;;;;5111933;28;20511;-72
2021/04/30 08:37:07;;;;;;;32.00;19.17;;;9.70;92.70;;;;;;5111970;28;20056;-72
2021/04/30 08:39:36;;;;;;;27.67;17.67;;;9.70;92.60;;;;;;5111342;28;20099;-72
2021/04/30 08:42:02;;;;;;;24.30;18.07;;;9.80;92.50;;;;;;5111521;28;20051;-73
2021/04/30 08:44:27;;;;;;;31.30;20.43;;;9.80;92.50;;;;;;5111784;28;20048;-72
2021/04/30 08:46:53;;;;;;;29.40;18.73;;;9.80;92.50;;;;;;5111042;28;20055;-71
2021/04/30 08:49:19;;;;;;;23.83;19.67;;;9.90;92.40;;;;;;5111685;28;20089;-71
2021/04/30 08:51:45;;;;;;;20.93;16.13;;;9.90;92.50;;;;;;5111543;28;20507;-71
2021/04/30 08:54:11;;;;;;;26.40;17.80;;;9.90;92.20;;;;;;5111210;28;20048;-72
2021/04/30 08:56:44;;;;;;;21.07;15.23;;;10.00;92.00;;;;;;5112163;28;20062;-73
2021/04/30 08:59:11;;;;;;;22.03;16.23;;;10.00;92.00;;;;;;5111572;28;20044;-72
2021/04/30 09:01:36;;;;;;;19.23;16.03;;;10.00;91.90;;;;;;5111139;28;20192;-72
2021/04/30 09:04:06;;;;;;;23.13;16.20;;;10.10;91.90;;;;;;5111175;28;20081;-72
2021/04/30 09:06:37;;;;;;;21.50;14.67;;;10.20;91.80;;;;;;5111936;28;20050;-71
2021/04/30 09:09:11;;;;;;;23.67;14.95;;;10.30;91.60;;;;;;5111406;28;20138;-72
2021/04/30 09:11:42;;;;;;;23.37;14.80;;;10.30;91.20;;;;;;5111354;28;20075;-76
2021/04/30 09:14:31;;;;;;;22.17;16.45;;;10.30;91.00;;;;;;5108399;28;20055;-75
2021/04/30 09:17:15;;;;;;;25.00;16.53;;;10.30;91.20;;;;;;5111399;28;20047;-75
2021/04/30 09:19:52;;;;;;;25.63;21.93;;;10.30;91.20;;;;;;5111621;28;20040;-75
2021/04/30 09:22:28;;;;;;;28.57;19.53;;;10.30;91.10;;;;;;5110718;28;20047;-74
2021/04/30 09:24:59;;;;;;;20.83;15.60;;;10.30;91.00;;;;;;5111320;28;20177;-76
2021/04/30 09:27:34;;;;;;;21.67;16.80;;;10.30;90.70;;;;;;5111607;28;20437;-76
2021/04/30 09:30:26;;;;;;;20.07;14.77;;;10.20;90.40;;;;;;5110526;28;20440;-77
2021/04/30 09:33:14;;;;;;;23.42;15.55;;;10.20;90.20;;;;;;5111065;28;20051;-75
2021/04/30 09:35:52;;;;;;;20.37;14.27;;;10.20;90.30;;;;;;5111211;28;20055;-73
2021/04/30 09:38:22;;;;;;;18.63;13.77;;;10.20;90.30;;;;;;5111000;28;20055;-74
2021/04/30 09:40:49;;;;;;;26.40;16.90;;;10.20;89.40;;;;;;5111198;28;20044;-73
2021/04/30 09:43:17;;;;;;;21.60;14.83;;;10.20;89.50;;;;;;5110897;28;20518;-74
2021/04/30 09:45:45;;;;;;;21.70;14.73;;;10.30;89.60;;;;;;5115337;28;20043;-74
2021/04/30 09:48:12;;;;;;;15.40;11.20;;;10.40;89.30;;;;;;5115533;28;20055;-72
2021/04/30 09:50:40;;;;;;;14.53;12.23;;;10.40;87.50;;;;;;5114613;27;20480;-73
2021/04/30 09:53:09;;;;;;;20.47;13.93;;;10.40;85.80;;;;;;5115149;28;20114;-73
2021/04/30 09:55:38;;;;;;;16.37;13.43;;;10.50;86.40;;;;;;5115294;28;20051;-74
2021/04/30 09:58:14;;;;;;;14.83;12.00;;;10.50;86.80;;;;;;5113742;28;20043;-74
2021/04/30 10:00:40;;;;;;;16.17;12.10;;;10.60;85.70;;;;;;5115363;28;20047;-73
2021/04/30 10:03:35;;;;;;;16.40;12.33;;;10.60;84.40;;;;;;5114401;28;20055;-74
2021/04/30 10:06:01;;;;;;;16.60;13.10;;;10.60;83.40;;;;;;5112869;27;20999;-73
2021/04/30 10:08:28;;;;;;;15.30;12.73;;;10.60;84.90;;;;;;5114627;28;20065;-73
2021/04/30 10:10:54;;;;;;;17.10;13.10;;;10.50;84.90;;;;;;5114162;28;20412;-73
2021/04/30 10:13:20;;;;;;;18.23;13.13;;;10.50;85.10;;;;;;5115112;28;20051;-73
2021/04/30 10:15:46;;;;;;;18.73;11.97;;;10.50;85.50;;;;;;5114654;28;20500;-73
2021/04/30 10:18:16;;;;;;;18.67;16.00;;;10.60;85.60;;;;;;5113939;28;20100;-73
2021/04/30 10:20:42;;;;;;;20.30;14.60;;;10.60;85.90;;;;;;5114643;28;20052;-74
2021/04/30 10:23:14;;;;;;;19.13;13.47;;;10.60;86.10;;;;;;5114572;28;20116;-73
2021/04/30 10:25:42;;;;;;;16.20;13.20;;;10.60;85.70;;;;;;5114109;28;20507;-73
2021/04/30 10:28:09;;;;;;;14.97;11.27;;;10.60;85.60;;;;;;5114127;28;20549;-73
2021/04/30 10:30:44;;;;;;;14.17;10.10;;;10.60;85.40;;;;;;5114552;28;20101;-74
2021/04/30 10:33:22;;;;;;;12.43;10.60;;;10.50;83.90;;;;;;5113701;28;20040;-73
2021/04/30 10:35:55;;;;;;;12.80;10.53;;;10.50;83.70;;;;;;5114544;28;20048;-72
2021/04/30 10:38:23;;;;;;;12.70;10.35;;;10.50;83.40;;;;;;5113630;27;20052;-73
2021/04/30 10:41:10;;;;;;;14.60;11.63;;;10.50;83.60;;;;;;5113878;28;20570;-73
2021/04/30 10:43:36;;;;;;;13.83;10.83;;;10.50;83.60;;;;;;5114546;28;20589;-73
2021/04/30 10:46:12;;;;;;;14.40;9.70;;;10.50;83.30;;;;;;5113218;28;20051;-73
2021/04/30 10:49:04;;;;;;;13.77;10.87;;;10.60;83.00;;;;;;5114650;28;20105;-73
2021/04/30 10:51:34;;;;;;;12.20;9.45;;;10.60;82.30;;;;;;5114316;28;20054;-73
2021/04/30 10:54:22;;;;;;;13.83;11.20;;;10.60;82.50;;;;;;5112833;28;20087;-74
2021/04/30 10:57:00;;;;;;;13.50;10.00;;;10.60;81.90;;;;;;5113309;28;20056;-73
2021/04/30 10:59:27;;;;;;;13.13;11.57;;;10.50;81.70;;;;;;5113240;28;20543;-72
2021/04/30 11:01:58;;;;;;;12.30;11.07;;;10.50;81.90;;;;;;5113614;28;20048;-73
2021/04/30 11:04:26;;;;;;;13.65;11.02;;;10.40;82.10;;;;;;5114055;28;20043;-72
2021/04/30 11:06:52;;;;;;;12.23;10.93;;;10.40;81.90;;;;;;5112857;28;20047;-73
2021/04/30 11:09:36;;;;;;;13.53;11.47;;;10.40;81.30;;;;;;5113521;28;20047;-72
2021/04/30 11:12:17;;;;;;;15.93;12.93;;;10.30;80.70;;;;;;5113411;28;20052;-72
2021/04/30 11:15:04;;;;;;;15.63;13.23;;;10.40;81.50;;;;;;5112864;28;20069;-73
2021/04/30 11:17:54;;;;;;;16.53;12.87;;;10.40;81.30;;;;;;5114190;28;20059;-72
2021/04/30 11:20:28;;;;;;;14.40;11.57;;;10.50;81.60;;;;;;5113041;28;20048;-73
2021/04/30 11:23:23;;;;;;;13.45;11.93;;;10.50;81.10;;;;;;5113654;28;20047;-72
2021/04/30 11:26:01;;;;;;;18.90;13.07;;;10.50;80.10;;;;;;5113308;28;20043;-75
2021/04/30 11:28:29;;;;;;;14.63;13.10;;;10.50;80.50;;;;;;5112780;28;20047;-72
2021/04/30 11:31:03;;;;;;;17.27;14.50;;;10.60;80.50;;;;;;5111318;28;20047;-69
2021/04/30 11:34:09;;;;;;;13.47;12.17;;;10.60;80.90;;;;;;5105901;28;20055;-71
2021/04/30 11:36:50;;;;;;;12.73;11.43;;;10.70;80.60;;;;;;5109191;28;20047;-73
2021/04/30 11:39:32;;;;;;;17.93;16.03;;;10.70;80.50;;;;;;5110128;28;20402;-73
2021/04/30 11:42:01;;;;;;;15.32;13.80;;;10.80;82.20;;;;;;5108735;27;20432;-72
2021/04/30 11:44:27;;;;;;;16.40;12.57;;;10.90;81.30;;;;;;5109898;28;20492;-71
2021/04/30 11:47:02;;;;;;;15.07;13.47;;;11.10;80.90;;;;;;5109613;28;20093;-69
2021/04/30 11:49:28;;;;;;;17.13;14.57;;;11.20;80.40;;;;;;5108571;28;20548;-73
2021/04/30 11:51:54;;;;;;;15.07;13.57;;;11.20;80.20;;;;;;5109096;28;20044;-74
2021/04/30 11:54:27;;;;;;;15.93;13.47;;;11.40;80.40;;;;;;5110029;28;20044;-71
2021/04/30 11:57:01;;;;;;;15.70;13.60;;;11.70;79.80;;;;;;5108262;28;20058;-72
2021/04/30 11:59:27;;;;;;;13.87;12.57;;;11.80;78.70;;;;;;5109727;28;20044;-72
2021/04/30 12:02:04;;;;;;;16.47;14.80;;;12.00;77.90;;;;;;5108989;28;20043;-71
2021/04/30 12:04:47;;;;;;;16.70;13.93;;;12.20;77.00;;;;;;5108846;27;20160;-72
2021/04/30 12:07:14;;;;;;;15.17;13.77;;;12.40;76.70;;;;;;5109083;28;20051;-71
2021/04/30 12:09:41;;;;;;;14.80;13.20;;;12.50;75.30;;;;;;5109416;28;20050;-71
2021/04/30 12:12:15;;;;;;;14.50;13.00;;;12.70;73.70;;;;;;5108984;28;20073;-72
2021/04/30 12:14:45;;;;;;;14.60;13.10;;;12.90;72.80;;;;;;5108971;28;20488;-71
2021/04/30 12:17:27;;;;;;;16.23;12.80;;;13.10;70.90;;;;;;5108050;28;20510;-71
2021/04/30 12:20:02;;;;;;;17.67;14.03;;;13.20;70.40;;;;;;5112073;28;20433;-70
2021/04/30 12:22:29;;;;;;;14.87;13.27;;;13.40;70.00;;;;;;5112650;28;20130;-69
2021/04/30 12:25:26;;;;;;;16.00;14.27;;;13.40;69.50;;;;;;5111469;28;20039;-71
2021/04/30 12:27:52;;;;;;;16.30;13.77;;;13.60;69.00;;;;;;5112202;28;20404;-70
2021/04/30 12:30:27;;;;;;;14.43;12.93;;;13.60;69.20;;;;;;5112105;28;20061;-69
2021/04/30 12:32:54;;;;;;;15.60;13.57;;;13.60;67.60;;;;;;5111710;28;20067;-69
2021/04/30 12:35:20;;;;;;;15.60;13.80;;;13.50;68.80;;;;;;5112522;28;20381;-69
2021/04/30 12:37:46;;;;;;;16.17;14.53;;;13.40;68.90;;;;;;5111252;28;20060;-69
2021/04/30 12:40:12;;;;;;;14.73;13.23;;;13.40;69.00;;;;;;5111971;28;20484;-68